Airfield :
LOGIN :

Register | Disclaimer

   EN    FR    IT 

 










Legend :    VFR   Marginal VFR   IFR   Intensive IFR   Very Intensive IFR
Visi :
Ceiling :
>= 8 km
>= 3000ft
5 to 8 km
1000 to 3000 ft
1500m to 5 km
500 to 1000 ft
800 to 1500m
200 to 500 ft
< 800m
< 200 ft
Symbols :   Thunderstorms  Fog  Heavy snow  Heavy precipitations  Wind > 20 kt
SIGMETs :     Misc.  Thunderstorms  Icing  Turbulence  Mountain Waves  Volcanic Ashes







- Airport Elevation : 277 ft
- IATA code : JER
- Download approach charts


EGJJ - Jersey

CURRENT METAR :
  • 251150Z 25017KT 9999 FEW008 12/09 Q1018

EXPIRED METARs :
  • 251120Z 26018KT 9999 FEW008 12/09 Q1018
  • 251050Z 26012KT 9999 FEW007 12/09 Q1018
  • 251020Z 30010KT 270V340 9999 VCSH FEW008 SCT014 10/06 Q1017
  • 250950Z 25017KT 9999 8000NW VCSH FEW007 SCT015 12/10 Q1017
  • 250920Z 26016KT 9999 FEW008 SCT010 11/09 Q1017

TAF TAF EGJJ
Valid from the 25 at 12:00 until the 25 at 21:00 UTC


251055Z 2512/2521 27015KT 9999 FEW010
PROB30
TEMPO 2512/2521 27018G28KT 8000 SHRA BKN015
ATIS : +44 1534 498 073
No reported NOTAMs for that airfield.



MET'MAP, your aeronautical weather chart ! - Copyright ORBIFLY December 2007 - Disclaimer

ORBIFLY MET'MAP TEAM :

Programming & Development : Alexandra Zaïnal
Concept & Development : Baudouin d'Aumeries
Co-Development & Prog : Marc-Olivier Méhu
Technical & hardware support : Manuel Goepfert

Contact : metmap@orbifly.com




SOURCES & CREDITS :

   NOAA